Time;durP1;ratioP1;P1;durP2;ratioP2;P2;SDS_P1;SDS_P2;PMS_P1;PMS_P2;Temp;Humidity;BMP_temperature;BMP_pressure;BME280_temperature;BME280_humidity;BME280_pressure;Samples;Min_cycle;Max_cycle;Signal;HPM_P1;HPM_P2
2021/09/07 00:01:06;;;;;;;36.58;21.85;;;;;;;;;;4348201;33;20155;-86
2021/09/07 00:03:34;;;;;;;30.25;20.83;;;;;;;;;;4348052;33;20202;-86
2021/09/07 00:06:00;;;;;;;33.05;21.92;;;;;;;;;;4333708;33;20155;-86
2021/09/07 00:08:25;;;;;;;30.52;20.92;;;;;;;;;;4333700;33;20155;-86
2021/09/07 00:10:53;;;;;;;31.50;20.77;;;;;;;;;;4347409;33;20140;-86
2021/09/07 00:13:22;;;;;;;33.15;21.12;;;;;;;;;;4333863;33;20191;-86
2021/09/07 00:15:50;;;;;;;30.85;19.25;;;;;;;;;;4333558;33;20162;-86
2021/09/07 00:18:16;;;;;;;30.80;19.95;;;;;;;;;;4346963;33;20167;-86
2021/09/07 00:20:41;;;;;;;36.97;22.65;;;;;;;;;;4347361;33;20523;-86
2021/09/07 00:23:06;;;;;;;31.00;20.75;;;;;;;;;;4333697;33;20155;-86
2021/09/07 00:25:35;;;;;;;38.87;20.97;;;;;;;;;;4347225;33;20202;-86
2021/09/07 00:28:09;;;;;;;37.17;22.55;;;;;;;;;;4333636;33;20282;-86
2021/09/07 00:30:40;;;;;;;28.67;19.95;;;;;;;;;;4333307;33;20163;-86
2021/09/07 00:33:11;;;;;;;28.55;19.50;;;;;;;;;;4334243;33;20202;-86
2021/09/07 00:35:39;;;;;;;34.75;21.37;;;;;;;;;;4333672;33;20182;-87
2021/09/07 00:38:05;;;;;;;32.95;19.67;;;;;;;;;;4347027;33;20140;-86
2021/09/07 00:40:30;;;;;;;31.35;20.02;;;;;;;;;;4346620;33;20159;-86
2021/09/07 00:42:56;;;;;;;33.40;20.62;;;;;;;;;;4347103;33;20127;-86
2021/09/07 00:45:21;;;;;;;32.67;21.05;;;;;;;;;;4346619;33;20170;-86
2021/09/07 00:47:59;;;;;;;;;;;;;;;;;;;;;
2021/09/07 00:50:25;;;;;;;33.13;21.37;;;;;;;;;;4346864;33;20182;-86
2021/09/07 00:52:56;;;;;;;33.60;22.80;;;;;;;;;;4346530;33;20135;-86
2021/09/07 00:55:25;;;;;;;36.05;22.52;;;;;;;;;;4346372;33;20135;-86
2021/09/07 00:57:58;;;;;;;34.22;22.02;;;;;;;;;;4333407;33;20163;-85
2021/09/07 01:00:35;;;;;;;37.35;23.70;;;;;;;;;;4332933;33;20186;-86
2021/09/07 01:03:03;;;;;;;40.28;24.67;;;;;;;;;;4347174;33;20123;-86
2021/09/07 01:05:34;;;;;;;40.97;24.67;;;;;;;;;;4346261;33;20540;-85
2021/09/07 01:08:00;;;;;;;40.35;23.40;;;;;;;;;;4346390;33;20136;-86
2021/09/07 01:10:38;;;;;;;39.45;24.63;;;;;;;;;;4332624;33;20167;-86
2021/09/07 01:13:09;;;;;;;37.60;23.00;;;;;;;;;;4333043;33;20181;-86
2021/09/07 01:15:37;;;;;;;35.17;21.87;;;;;;;;;;4333084;33;20154;-86
2021/09/07 01:18:08;;;;;;;33.75;22.00;;;;;;;;;;4346391;33;20163;-86
2021/09/07 01:20:33;;;;;;;38.70;24.33;;;;;;;;;;4346978;33;20128;-85
2021/09/07 01:23:06;;;;;;;38.15;23.05;;;;;;;;;;4332813;33;20156;-86
2021/09/07 01:25:31;;;;;;;34.55;22.23;;;;;;;;;;4347268;33;20146;-86
2021/09/07 01:27:57;;;;;;;37.00;22.92;;;;;;;;;;4333416;33;20160;-85
2021/09/07 01:30:25;;;;;;;41.70;24.75;;;;;;;;;;4333640;33;20160;-86
2021/09/07 01:32:53;;;;;;;36.88;22.95;;;;;;;;;;4347010;33;20623;-86
2021/09/07 01:35:27;;;;;;;41.67;24.73;;;;;;;;;;4333130;33;20531;-86
2021/09/07 01:38:00;;;;;;;45.45;26.37;;;;;;;;;;4334563;33;20155;-86
2021/09/07 01:40:34;;;;;;;39.42;25.35;;;;;;;;;;4347887;33;20182;-86
2021/09/07 01:43:10;;;;;;;;;;;;;;;;;;;;;
2021/09/07 01:45:41;;;;;;;38.40;23.65;;;;;;;;;;4317805;33;20163;-86
2021/09/07 01:48:06;;;;;;;37.00;24.90;;;;;;;;;;4345980;33;20163;-86
2021/09/07 01:50:31;;;;;;;45.67;27.15;;;;;;;;;;4345740;33;20199;-86
2021/09/07 01:52:57;;;;;;;40.20;25.67;;;;;;;;;;4332505;33;20175;-86
2021/09/07 01:55:31;;;;;;;44.00;26.35;;;;;;;;;;4346166;33;20423;-86
2021/09/07 01:58:02;;;;;;;40.83;25.90;;;;;;;;;;4331800;33;20181;-85
2021/09/07 02:00:27;;;;;;;40.78;25.95;;;;;;;;;;4346086;33;20210;-85
2021/09/07 02:02:58;;;;;;;47.08;28.35;;;;;;;;;;4345663;33;20561;-86
2021/09/07 02:05:29;;;;;;;41.47;26.30;;;;;;;;;;4345388;33;20174;-86
2021/09/07 02:07:54;;;;;;;42.60;26.62;;;;;;;;;;4345976;33;20249;-85
2021/09/07 02:10:23;;;;;;;42.20;26.25;;;;;;;;;;4345528;33;20537;-85
2021/09/07 02:12:48;;;;;;;46.37;27.33;;;;;;;;;;4345788;33;20273;-86
2021/09/07 02:15:19;;;;;;;42.72;26.23;;;;;;;;;;4345937;33;20135;-86
2021/09/07 02:18:10;;;;;;;42.88;27.00;;;;;;;;;;4346194;33;20140;-86
2021/09/07 02:20:35;;;;;;;45.42;27.80;;;;;;;;;;4332288;33;20163;-86
2021/09/07 02:23:05;;;;;;;42.78;26.15;;;;;;;;;;4332138;33;20508;-86
2021/09/07 02:25:31;;;;;;;48.72;28.90;;;;;;;;;;4345506;33;20165;-85
2021/09/07 02:27:56;;;;;;;45.78;28.40;;;;;;;;;;4345817;33;20191;-86
2021/09/07 02:30:25;;;;;;;43.35;26.87;;;;;;;;;;4345277;33;20159;-86
2021/09/07 02:33:04;;;;;;;45.65;27.65;;;;;;;;;;4346223;33;20139;-85
2021/09/07 02:35:32;;;;;;;43.95;26.55;;;;;;;;;;4345622;33;20470;-86
2021/09/07 02:37:58;;;;;;;41.97;26.25;;;;;;;;;;4331914;33;20593;-86
2021/09/07 02:40:23;;;;;;;43.83;27.45;;;;;;;;;;4331715;33;20186;-85
2021/09/07 02:42:48;;;;;;;43.65;26.33;;;;;;;;;;4331790;33;20233;-85
2021/09/07 02:45:16;;;;;;;43.92;27.05;;;;;;;;;;4345854;33;20151;-86
2021/09/07 02:47:44;;;;;;;46.35;27.92;;;;;;;;;;4331954;33;20172;-85
2021/09/07 02:50:16;;;;;;;46.22;27.95;;;;;;;;;;4331799;33;20195;-86
2021/09/07 02:52:49;;;;;;;52.60;30.20;;;;;;;;;;4331853;33;20217;-85
2021/09/07 02:55:14;;;;;;;45.35;28.58;;;;;;;;;;4345566;33;20182;-85
2021/09/07 02:57:48;;;;;;;52.10;29.85;;;;;;;;;;4332332;33;20183;-86
2021/09/07 03:00:16;;;;;;;45.72;28.00;;;;;;;;;;4330840;33;20594;-85
2021/09/07 03:02:47;;;;;;;47.62;29.37;;;;;;;;;;4332120;33;20160;-86
2021/09/07 03:05:25;;;;;;;;;;;;;;;;;;;;;
2021/09/07 03:08:36;;;;;;;;;;;;;;;;;;;;;
2021/09/07 03:11:13;;;;;;;47.03;28.23;;;;;;;;;;4335742;33;20183;-85
2021/09/07 03:13:57;;;;;;;;;;;;;;;;;;;;;
2021/09/07 03:16:25;;;;;;;54.47;31.45;;;;;;;;;;4345713;33;20155;-85
2021/09/07 03:18:52;;;;;;;52.83;30.45;;;;;;;;;;4347741;33;20143;-85
2021/09/07 03:21:18;;;;;;;49.95;29.80;;;;;;;;;;4347977;33;20496;-84
2021/09/07 03:23:46;;;;;;;46.67;29.17;;;;;;;;;;4348794;33;20171;-85
2021/09/07 03:26:12;;;;;;;51.60;30.85;;;;;;;;;;4348021;33;20161;-85
2021/09/07 03:28:57;;;;;;;50.72;30.08;;;;;;;;;;4348669;33;20139;-85
2021/09/07 03:31:41;;;;;;;;;;;;;;;;;;;;;
2021/09/07 03:34:22;;;;;;;55.05;31.30;;;;;;;;;;4351226;33;20170;-86
2021/09/07 03:36:51;;;;;;;53.90;31.98;;;;;;;;;;4352803;33;20154;-86
2021/09/07 03:39:16;;;;;;;50.58;30.95;;;;;;;;;;4338833;33;20190;-85
2021/09/07 03:41:44;;;;;;;50.12;30.98;;;;;;;;;;4352549;33;20211;-85
2021/09/07 03:44:09;;;;;;;46.88;29.98;;;;;;;;;;4339401;33;20175;-85
2021/09/07 03:46:35;;;;;;;48.83;29.70;;;;;;;;;;4339073;33;20237;-86
2021/09/07 03:49:01;;;;;;;49.70;29.48;;;;;;;;;;4352510;33;20143;-86
2021/09/07 03:51:26;;;;;;;58.55;32.47;;;;;;;;;;4350371;33;20152;-86
2021/09/07 03:53:53;;;;;;;51.65;31.00;;;;;;;;;;4347945;33;20135;-86
2021/09/07 03:56:27;;;;;;;53.67;32.42;;;;;;;;;;4334320;33;20213;-85
2021/09/07 03:58:52;;;;;;;55.75;32.28;;;;;;;;;;4334042;33;20174;-85
2021/09/07 04:01:25;;;;;;;54.35;31.23;;;;;;;;;;4347274;33;20640;-85
2021/09/07 04:04:02;;;;;;;57.33;33.00;;;;;;;;;;4348044;33;20190;-85
2021/09/07 04:06:30;;;;;;;55.95;32.42;;;;;;;;;;4347892;33;20142;-86
2021/09/07 04:09:03;;;;;;;59.47;34.78;;;;;;;;;;4333905;33;20160;-86
2021/09/07 04:11:29;;;;;;;58.50;34.00;;;;;;;;;;4347469;33;20226;-85
2021/09/07 04:13:54;;;;;;;57.95;33.40;;;;;;;;;;4347845;33;20151;-84
2021/09/07 04:16:20;;;;;;;58.00;33.08;;;;;;;;;;4333677;33;20213;-85
2021/09/07 04:18:45;;;;;;;55.15;31.48;;;;;;;;;;4347170;33;20569;-85
2021/09/07 04:21:16;;;;;;;51.20;30.33;;;;;;;;;;4347709;33;20202;-86
2021/09/07 04:23:44;;;;;;;54.92;32.75;;;;;;;;;;4347687;33;20242;-85
2021/09/07 04:26:15;;;;;;;54.80;32.58;;;;;;;;;;4347670;33;20155;-85
2021/09/07 04:28:46;;;;;;;56.40;33.35;;;;;;;;;;4347113;33;20169;-85
2021/09/07 04:31:20;;;;;;;57.70;33.60;;;;;;;;;;4333412;33;20168;-85
2021/09/07 04:37:04;;;;;;;53.35;32.08;;;;;;;;;;4347474;33;20166;-86
2021/09/07 04:39:33;;;;;;;54.47;30.42;;;;;;;;;;4342167;33;20151;-84
2021/09/07 04:41:58;;;;;;;56.65;32.15;;;;;;;;;;4346788;33;20183;-85
2021/09/07 04:44:30;;;;;;;52.38;30.25;;;;;;;;;;4355926;33;20178;-85
2021/09/07 04:47:00;;;;;;;56.47;31.52;;;;;;;;;;4339042;33;20167;-86
2021/09/07 04:49:26;;;;;;;56.20;30.55;;;;;;;;;;4350438;33;20185;-85
2021/09/07 04:51:51;;;;;;;60.80;33.83;;;;;;;;;;4351811;33;20155;-85
2021/09/07 04:54:17;;;;;;;58.55;33.00;;;;;;;;;;4358045;33;20479;-86
2021/09/07 04:56:42;;;;;;;59.30;34.00;;;;;;;;;;4343578;33;20505;-85
2021/09/07 04:59:07;;;;;;;62.92;33.97;;;;;;;;;;4347646;33;20131;-85
2021/09/07 05:01:33;;;;;;;61.03;33.35;;;;;;;;;;4346800;33;20135;-85
2021/09/07 05:04:02;;;;;;;61.20;33.67;;;;;;;;;;4333140;33;20190;-85
2021/09/07 05:06:27;;;;;;;58.63;33.63;;;;;;;;;;4333038;33;20525;-86
2021/09/07 05:08:53;;;;;;;58.35;34.72;;;;;;;;;;4347101;33;20148;-85
2021/09/07 05:11:18;;;;;;;56.55;33.80;;;;;;;;;;4346740;33;20241;-85
2021/09/07 05:13:46;;;;;;;55.92;31.65;;;;;;;;;;4346253;33;20139;-85
2021/09/07 05:16:11;;;;;;;50.67;30.50;;;;;;;;;;4332775;33;20158;-85
2021/09/07 05:18:39;;;;;;;48.75;30.50;;;;;;;;;;4346591;33;20613;-85
2021/09/07 05:21:05;;;;;;;51.47;29.60;;;;;;;;;;4345954;33;20169;-83
2021/09/07 05:23:30;;;;;;;53.15;31.87;;;;;;;;;;4345990;33;20139;-83
2021/09/07 05:25:56;;;;;;;53.05;30.17;;;;;;;;;;4346445;33;20131;-84
2021/09/07 05:28:31;;;;;;;54.10;31.33;;;;;;;;;;4345795;33;20131;-82
2021/09/07 05:31:07;;;;;;;60.47;32.83;;;;;;;;;;4332206;33;20488;-83
2021/09/07 05:33:32;;;;;;;56.60;32.08;;;;;;;;;;4346109;33;20144;-83
2021/09/07 05:36:01;;;;;;;52.60;31.17;;;;;;;;;;4332185;33;20213;-84
2021/09/07 05:38:32;;;;;;;53.72;31.50;;;;;;;;;;4345934;33;20455;-84
2021/09/07 05:40:57;;;;;;;55.47;32.33;;;;;;;;;;4332466;33;20168;-84
2021/09/07 05:43:22;;;;;;;52.20;31.48;;;;;;;;;;4345775;33;20588;-83
2021/09/07 05:45:50;;;;;;;53.05;29.10;;;;;;;;;;4345948;33;20347;-83
2021/09/07 05:48:22;;;;;;;52.78;30.20;;;;;;;;;;4332598;33;20168;-80
2021/09/07 05:50:49;;;;;;;49.78;30.27;;;;;;;;;;4346110;33;20155;-84
2021/09/07 05:53:17;;;;;;;54.65;30.27;;;;;;;;;;4345384;33;20175;-83
2021/09/07 05:55:51;;;;;;;54.45;31.62;;;;;;;;;;4332330;33;20182;-85
2021/09/07 05:58:17;;;;;;;56.55;31.02;;;;;;;;;;4346336;33;20139;-84
2021/09/07 06:00:42;;;;;;;52.83;31.90;;;;;;;;;;4346089;33;20132;-83
2021/09/07 06:03:08;;;;;;;49.83;30.08;;;;;;;;;;4346091;33;20140;-84
2021/09/07 06:08:31;;;;;;;56.97;30.05;;;;;;;;;;4329774;33;20170;-83
2021/09/07 06:10:56;;;;;;;54.47;28.92;;;;;;;;;;4332330;33;20194;-85
2021/09/07 06:13:28;;;;;;;48.15;27.73;;;;;;;;;;4345840;33;20131;-84
2021/09/07 06:15:53;;;;;;;57.17;29.98;;;;;;;;;;4331907;33;20222;-84
2021/09/07 06:18:18;;;;;;;53.45;29.55;;;;;;;;;;4345418;33;20205;-84
2021/09/07 06:20:44;;;;;;;53.35;31.05;;;;;;;;;;4332000;33;20164;-81
2021/09/07 06:23:09;;;;;;;51.20;29.37;;;;;;;;;;4331972;33;20155;-84
2021/09/07 06:25:34;;;;;;;49.80;30.00;;;;;;;;;;4346086;33;20583;-82
2021/09/07 06:28:00;;;;;;;56.40;30.58;;;;;;;;;;4331930;33;20206;-85
2021/09/07 06:30:26;;;;;;;47.28;28.17;;;;;;;;;;4332269;33;20164;-83
2021/09/07 06:32:51;;;;;;;46.92;27.92;;;;;;;;;;4345783;33;20135;-84
2021/09/07 06:35:18;;;;;;;46.45;28.95;;;;;;;;;;4346477;33;20158;-83
2021/09/07 06:37:44;;;;;;;47.88;29.25;;;;;;;;;;4346204;33;20489;-85
2021/09/07 06:40:09;;;;;;;47.50;29.48;;;;;;;;;;4346960;33;20132;-84
2021/09/07 06:42:38;;;;;;;47.47;28.70;;;;;;;;;;4334220;33;20171;-84
2021/09/07 06:45:03;;;;;;;52.05;29.92;;;;;;;;;;4347616;33;20147;-85
2021/09/07 06:47:28;;;;;;;50.33;30.77;;;;;;;;;;4333533;33;20245;-84
2021/09/07 06:50:03;;;;;;;55.12;30.65;;;;;;;;;;4347947;33;20131;-85
2021/09/07 06:52:29;;;;;;;53.85;30.65;;;;;;;;;;4352664;33;20151;-87
2021/09/07 06:54:54;;;;;;;53.20;31.12;;;;;;;;;;4327250;33;20202;-87
2021/09/07 06:57:23;;;;;;;52.33;31.83;;;;;;;;;;4334775;33;20164;-84
2021/09/07 06:59:48;;;;;;;55.60;33.33;;;;;;;;;;4335247;33;20504;-84
2021/09/07 07:02:14;;;;;;;52.15;30.92;;;;;;;;;;4334846;33;20161;-85
2021/09/07 07:04:39;;;;;;;55.22;32.97;;;;;;;;;;4337776;33;20159;-86
2021/09/07 07:07:04;;;;;;;52.65;32.53;;;;;;;;;;4332929;33;20182;-84
2021/09/07 07:09:29;;;;;;;52.92;33.63;;;;;;;;;;4327102;33;20190;-84
2021/09/07 07:12:01;;;;;;;54.30;32.25;;;;;;;;;;4320166;33;20190;-83
2021/09/07 07:14:36;;;;;;;60.08;32.72;;;;;;;;;;4333444;33;20198;-84
2021/09/07 07:17:01;;;;;;;56.65;33.10;;;;;;;;;;4320355;33;20197;-85
2021/09/07 07:19:27;;;;;;;49.85;32.00;;;;;;;;;;4334621;33;20534;-85
2021/09/07 07:21:52;;;;;;;54.08;35.33;;;;;;;;;;4334482;33;20167;-83
2021/09/07 07:24:30;;;;;;;51.97;32.70;;;;;;;;;;4333697;33;20542;-85
2021/09/07 07:27:16;;;;;;;49.60;33.42;;;;;;;;;;4320548;33;20286;-83
2021/09/07 07:29:44;;;;;;;54.92;35.65;;;;;;;;;;4332735;33;20163;-83
2021/09/07 07:32:10;;;;;;;50.60;34.50;;;;;;;;;;4333270;33;20152;-84
2021/09/07 07:34:35;;;;;;;51.30;32.30;;;;;;;;;;4333214;33;20519;-84
2021/09/07 07:37:01;;;;;;;53.58;35.38;;;;;;;;;;4333517;33;20420;-83
2021/09/07 07:39:27;;;;;;;55.28;33.85;;;;;;;;;;4332989;33;20140;-83
2021/09/07 07:41:52;;;;;;;52.67;32.13;;;;;;;;;;4333316;33;20191;-85
2021/09/07 07:44:18;;;;;;;50.03;33.33;;;;;;;;;;4336132;33;20140;-82
2021/09/07 07:46:43;;;;;;;50.20;31.45;;;;;;;;;;4339515;33;20590;-83
2021/09/07 07:49:09;;;;;;;56.80;35.83;;;;;;;;;;4339706;33;20701;-83
2021/09/07 07:51:34;;;;;;;52.83;30.55;;;;;;;;;;4339969;33;20144;-82
2021/09/07 07:54:02;;;;;;;49.53;29.55;;;;;;;;;;4339801;33;20132;-79
2021/09/07 07:56:27;;;;;;;55.15;31.73;;;;;;;;;;4339880;33;20214;-82
2021/09/07 07:58:53;;;;;;;51.35;33.30;;;;;;;;;;4328274;33;20223;-81
2021/09/07 08:01:18;;;;;;;48.03;31.37;;;;;;;;;;4329882;33;20241;-83
2021/09/07 08:03:46;;;;;;;48.83;31.48;;;;;;;;;;4342660;33;20568;-84
2021/09/07 08:06:11;;;;;;;49.10;31.23;;;;;;;;;;4344413;33;20155;-83
2021/09/07 08:08:36;;;;;;;55.55;33.00;;;;;;;;;;4342571;33;20181;-82
2021/09/07 08:11:02;;;;;;;55.35;31.70;;;;;;;;;;4341623;33;20538;-84
2021/09/07 08:13:27;;;;;;;49.08;29.73;;;;;;;;;;4342742;33;20120;-83
2021/09/07 08:15:52;;;;;;;50.55;33.55;;;;;;;;;;4331026;33;20178;-82
2021/09/07 08:18:18;;;;;;;48.15;28.83;;;;;;;;;;4346698;33;20159;-82
2021/09/07 08:20:43;;;;;;;48.95;29.40;;;;;;;;;;4344701;33;20158;-84
2021/09/07 08:23:08;;;;;;;46.47;30.92;;;;;;;;;;4344384;33;20190;-83
2021/09/07 08:25:33;;;;;;;56.13;29.20;;;;;;;;;;4343372;33;20135;-83
2021/09/07 08:27:59;;;;;;;47.38;29.33;;;;;;;;;;4345429;33;20167;-84
2021/09/07 08:30:24;;;;;;;46.15;28.08;;;;;;;;;;4344228;33;20148;-82
2021/09/07 08:32:50;;;;;;;41.83;28.10;;;;;;;;;;4339760;33;20165;-83
2021/09/07 08:35:15;;;;;;;45.15;27.87;;;;;;;;;;4335695;33;20210;-83
2021/09/07 08:37:41;;;;;;;43.95;28.73;;;;;;;;;;4335012;33;20627;-83
2021/09/07 08:40:08;;;;;;;48.05;30.67;;;;;;;;;;4335889;33;20195;-83
2021/09/07 08:42:34;;;;;;;46.67;30.62;;;;;;;;;;4333627;33;20461;-84
2021/09/07 08:45:00;;;;;;;47.42;29.25;;;;;;;;;;4333366;33;20194;-83
2021/09/07 08:47:25;;;;;;;48.38;27.50;;;;;;;;;;4332876;33;20167;-83
2021/09/07 08:49:51;;;;;;;42.55;29.87;;;;;;;;;;4333181;33;20128;-83
2021/09/07 08:52:18;;;;;;;42.53;28.20;;;;;;;;;;4333199;33;20226;-83
2021/09/07 08:54:43;;;;;;;45.22;26.77;;;;;;;;;;4318778;33;20175;-85
2021/09/07 08:57:09;;;;;;;41.78;28.52;;;;;;;;;;4332126;33;20606;-84
2021/09/07 08:59:35;;;;;;;40.70;27.00;;;;;;;;;;4318620;33;20525;-83
2021/09/07 09:02:19;;;;;;;45.50;27.35;;;;;;;;;;4332488;33;20135;-82
2021/09/07 09:04:45;;;;;;;40.08;25.70;;;;;;;;;;4332871;33;20129;-81
2021/09/07 09:07:21;;;;;;;42.97;26.65;;;;;;;;;;4332213;33;20132;-84
2021/09/07 09:09:49;;;;;;;36.67;25.25;;;;;;;;;;4331654;33;20158;-83
2021/09/07 09:12:14;;;;;;;37.08;21.85;;;;;;;;;;4331441;33;20151;-83
2021/09/07 09:14:41;;;;;;;42.05;25.88;;;;;;;;;;4331150;33;20167;-83
2021/09/07 09:17:25;;;;;;;38.20;23.70;;;;;;;;;;4331302;33;20154;-85
2021/09/07 09:20:18;;;;;;;39.00;24.73;;;;;;;;;;4331147;33;20163;-83
2021/09/07 09:22:45;;;;;;;33.72;21.67;;;;;;;;;;4332146;33;20139;-83
2021/09/07 09:25:20;;;;;;;35.20;23.23;;;;;;;;;;4332085;33;20162;-81
2021/09/07 09:27:48;;;;;;;35.78;23.12;;;;;;;;;;4331379;33;20147;-84
2021/09/07 09:30:14;;;;;;;34.83;22.52;;;;;;;;;;4318202;33;20473;-82
2021/09/07 09:32:52;;;;;;;34.92;23.92;;;;;;;;;;4331415;33;20147;-83
2021/09/07 09:35:17;;;;;;;34.90;20.85;;;;;;;;;;4331185;33;20143;-81
2021/09/07 09:37:58;;;;;;;37.60;25.15;;;;;;;;;;4317561;33;20550;-84
2021/09/07 09:40:23;;;;;;;34.17;20.98;;;;;;;;;;4331700;33;20211;-83
2021/09/07 09:42:49;;;;;;;38.35;22.90;;;;;;;;;;4331249;33;20443;-85
2021/09/07 09:45:15;;;;;;;37.63;24.17;;;;;;;;;;4331531;33;20213;-83
2021/09/07 09:47:43;;;;;;;36.08;21.55;;;;;;;;;;4317588;33;20198;-84
2021/09/07 09:50:09;;;;;;;36.90;22.08;;;;;;;;;;4317662;33;20152;-84
2021/09/07 09:52:36;;;;;;;30.02;20.23;;;;;;;;;;4331331;33;20174;-84
2021/09/07 09:55:05;;;;;;;29.48;20.23;;;;;;;;;;4331070;33;20183;-82
2021/09/07 09:57:30;;;;;;;32.38;20.42;;;;;;;;;;4331246;33;20223;-84
2021/09/07 09:59:56;;;;;;;38.67;21.90;;;;;;;;;;4330665;33;20135;-83
2021/09/07 10:02:21;;;;;;;30.60;19.25;;;;;;;;;;4330877;33;20135;-82
2021/09/07 10:04:46;;;;;;;34.38;22.10;;;;;;;;;;4330826;33;20143;-82
2021/09/07 10:07:12;;;;;;;28.75;20.62;;;;;;;;;;4330583;33;20140;-83
2021/09/07 10:09:38;;;;;;;35.08;21.75;;;;;;;;;;4330817;33;20136;-81
2021/09/07 10:12:10;;;;;;;35.25;21.52;;;;;;;;;;4330408;33;20143;-83
2021/09/07 10:14:50;;;;;;;30.75;20.60;;;;;;;;;;4331296;33;20170;-83
2021/09/07 10:20:18;;;;;;;29.55;19.75;;;;;;;;;;4331214;33;20659;-83
2021/09/07 10:25:47;;;;;;;29.63;20.30;;;;;;;;;;4331202;33;20470;-82
2021/09/07 10:28:27;;;;;;;27.60;18.73;;;;;;;;;;4330492;33;20162;-82
2021/09/07 10:31:09;;;;;;;29.42;18.40;;;;;;;;;;4331791;33;20136;-84
2021/09/07 10:33:35;;;;;;;25.75;16.12;;;;;;;;;;4331184;33;20195;-83
2021/09/07 10:36:08;;;;;;;26.30;18.17;;;;;;;;;;4331170;33;20482;-84
2021/09/07 10:38:41;;;;;;;28.35;17.10;;;;;;;;;;4317422;33;20175;-82
2021/09/07 10:41:07;;;;;;;27.10;17.52;;;;;;;;;;4331177;33;20132;-82
2021/09/07 10:43:52;;;;;;;22.67;14.45;;;;;;;;;;4330855;33;20478;-82
2021/09/07 10:46:41;;;;;;;24.63;16.75;;;;;;;;;;4331039;33;20152;-79
2021/09/07 10:49:29;;;;;;;22.08;14.73;;;;;;;;;;4330550;33;20242;-83
2021/09/07 10:52:15;;;;;;;20.42;14.55;;;;;;;;;;4330944;33;20592;-82
2021/09/07 10:54:52;;;;;;;22.62;15.05;;;;;;;;;;4300203;33;20181;-83
2021/09/07 10:57:33;;;;;;;24.33;16.60;;;;;;;;;;4330424;33;20174;-83
2021/09/07 10:59:58;;;;;;;22.13;14.80;;;;;;;;;;4330984;33;20462;-83
2021/09/07 11:02:30;;;;;;;23.20;16.08;;;;;;;;;;4330671;33;20159;-83
2021/09/07 11:05:04;;;;;;;21.98;13.77;;;;;;;;;;4330633;33;20166;-82
2021/09/07 11:07:37;;;;;;;23.50;16.12;;;;;;;;;;4331365;33;20185;-82
2021/09/07 11:10:03;;;;;;;23.30;16.08;;;;;;;;;;4331051;33;20167;-83
2021/09/07 11:12:32;;;;;;;20.40;14.35;;;;;;;;;;4330506;33;20155;-83
2021/09/07 11:15:06;;;;;;;17.77;12.60;;;;;;;;;;4330813;33;20550;-84
2021/09/07 11:17:32;;;;;;;17.60;12.95;;;;;;;;;;4330520;33;20158;-82
2021/09/07 11:20:02;;;;;;;18.67;12.07;;;;;;;;;;4317354;33;20171;-85
2021/09/07 11:22:31;;;;;;;21.65;13.60;;;;;;;;;;4330349;33;20148;-82
2021/09/07 11:25:02;;;;;;;19.55;15.20;;;;;;;;;;4317366;33;20167;-83
2021/09/07 11:27:46;;;;;;;18.33;12.10;;;;;;;;;;4317267;33;20160;-82
2021/09/07 11:30:23;;;;;;;20.62;12.70;;;;;;;;;;4330784;33;20179;-80
2021/09/07 11:32:56;;;;;;;18.05;13.43;;;;;;;;;;4330150;33;20435;-83
2021/09/07 11:35:23;;;;;;;21.70;13.57;;;;;;;;;;4330778;33;20174;-82
2021/09/07 11:37:49;;;;;;;17.45;11.77;;;;;;;;;;4330419;33;20175;-79
2021/09/07 11:40:23;;;;;;;20.45;13.65;;;;;;;;;;4333879;33;20136;-83
2021/09/07 11:42:49;;;;;;;16.58;13.55;;;;;;;;;;4337800;33;20203;-83
2021/09/07 11:45:27;;;;;;;17.08;11.68;;;;;;;;;;4338318;33;20534;-85
2021/09/07 11:47:53;;;;;;;17.58;12.40;;;;;;;;;;4339551;33;20159;-84
2021/09/07 11:50:20;;;;;;;15.57;12.30;;;;;;;;;;4338631;33;20613;-84
2021/09/07 11:52:47;;;;;;;18.85;13.43;;;;;;;;;;4336525;33;20136;-82
2021/09/07 11:55:31;;;;;;;17.25;13.57;;;;;;;;;;4319451;33;20496;-84
2021/09/07 11:58:05;;;;;;;20.02;13.60;;;;;;;;;;4319822;33;20222;-82
2021/09/07 12:00:31;;;;;;;17.05;12.73;;;;;;;;;;4333117;33;20127;-84
2021/09/07 12:03:12;;;;;;;15.48;11.12;;;;;;;;;;4332709;33;20132;-85
2021/09/07 12:05:54;;;;;;;20.60;11.10;;;;;;;;;;4332470;33;20131;-83
2021/09/07 12:08:29;;;;;;;18.67;12.27;;;;;;;;;;4332254;33;20183;-84
2021/09/07 12:11:03;;;;;;;19.60;12.63;;;;;;;;;;4332352;33;20155;-83
2021/09/07 12:13:32;;;;;;;21.75;12.50;;;;;;;;;;4318973;33;20152;-81
2021/09/07 12:15:58;;;;;;;19.20;13.15;;;;;;;;;;4332206;33;20202;-78
2021/09/07 12:18:31;;;;;;;17.33;11.85;;;;;;;;;;4332229;33;20136;-84
2021/09/07 12:21:16;;;;;;;18.73;12.27;;;;;;;;;;4332179;33;20144;-84
2021/09/07 12:23:48;;;;;;;17.10;13.73;;;;;;;;;;4331933;33;20132;-83
2021/09/07 12:26:14;;;;;;;21.85;13.50;;;;;;;;;;4318617;33;20189;-83
2021/09/07 12:28:40;;;;;;;16.60;13.65;;;;;;;;;;4332886;33;20168;-84
2021/09/07 12:31:13;;;;;;;24.85;14.98;;;;;;;;;;4331929;33;20443;-83
2021/09/07 12:33:43;;;;;;;19.02;15.43;;;;;;;;;;4318704;33;20160;-84
2021/09/07 12:36:09;;;;;;;17.50;13.13;;;;;;;;;;4332085;33;20123;-83
2021/09/07 12:38:34;;;;;;;13.45;11.75;;;;;;;;;;4331790;33;20156;-83
2021/09/07 12:41:26;;;;;;;20.27;14.50;;;;;;;;;;4331890;33;20224;-83
2021/09/07 12:43:53;;;;;;;21.05;14.80;;;;;;;;;;4328535;33;20243;-83
2021/09/07 12:46:19;;;;;;;16.70;12.85;;;;;;;;;;4332309;33;20136;-83
2021/09/07 12:48:55;;;;;;;13.60;10.98;;;;;;;;;;4331733;33;20555;-83
2021/09/07 12:51:23;;;;;;;10.85;9.70;;;;;;;;;;4332201;33;20170;-86
2021/09/07 12:53:51;;;;;;;13.93;10.30;;;;;;;;;;4332655;33;20166;-83
2021/09/07 12:56:21;;;;;;;12.43;10.75;;;;;;;;;;4331812;33;20624;-84
2021/09/07 12:58:51;;;;;;;13.55;10.32;;;;;;;;;;4332566;33;20136;-84
2021/09/07 13:01:17;;;;;;;12.20;10.88;;;;;;;;;;4319680;33;20164;-81
2021/09/07 13:03:43;;;;;;;15.80;11.07;;;;;;;;;;4332391;33;20132;-83
2021/09/07 13:06:09;;;;;;;11.88;10.40;;;;;;;;;;4331746;33;20558;-83
2021/09/07 13:08:34;;;;;;;15.07;11.75;;;;;;;;;;4331806;33;20140;-83
2021/09/07 13:11:38;;;;;;;11.18;9.70;;;;;;;;;;4331682;33;20218;-84
2021/09/07 13:13:58;;;;;;;15.48;12.20;;;;;;;;;;4329688;33;20226;-83
2021/09/07 13:16:23;;;;;;;13.55;11.57;;;;;;;;;;4331112;33;20161;-83
2021/09/07 13:18:50;;;;;;;12.68;10.45;;;;;;;;;;4318520;33;20195;-83
2021/09/07 13:21:17;;;;;;;11.32;9.20;;;;;;;;;;4331324;33;20493;-83
2021/09/07 13:23:42;;;;;;;14.43;9.80;;;;;;;;;;4331684;33;20520;-83
2021/09/07 13:26:08;;;;;;;10.50;8.13;;;;;;;;;;4331446;33;20136;-83
2021/09/07 13:28:33;;;;;;;11.35;8.93;;;;;;;;;;4331442;33;20198;-83
2021/09/07 13:30:59;;;;;;;11.95;9.02;;;;;;;;;;4331548;33;20179;-83
2021/09/07 13:33:24;;;;;;;14.75;10.10;;;;;;;;;;4332197;33;20507;-80
2021/09/07 13:35:49;;;;;;;14.27;10.65;;;;;;;;;;4331910;33;20175;-83
2021/09/07 13:38:14;;;;;;;14.75;11.02;;;;;;;;;;4319338;33;20678;-80
2021/09/07 13:40:40;;;;;;;16.52;10.90;;;;;;;;;;4319405;33;20160;-84
2021/09/07 13:43:05;;;;;;;12.95;10.68;;;;;;;;;;4331093;33;20584;-83
2021/09/07 13:45:31;;;;;;;13.20;10.13;;;;;;;;;;4331304;33;20148;-83
2021/09/07 13:47:59;;;;;;;12.30;9.15;;;;;;;;;;4330883;33;20240;-80
2021/09/07 13:50:34;;;;;;;13.52;10.25;;;;;;;;;;4331170;33;20174;-82
2021/09/07 13:52:59;;;;;;;14.00;11.95;;;;;;;;;;4331298;33;20498;-82
2021/09/07 13:55:28;;;;;;;13.20;9.90;;;;;;;;;;4331254;33;20157;-82
2021/09/07 13:57:53;;;;;;;13.57;10.77;;;;;;;;;;4317892;33;20512;-84
2021/09/07 14:00:19;;;;;;;13.00;10.15;;;;;;;;;;4331254;33;20140;-84
2021/09/07 14:02:44;;;;;;;14.00;9.70;;;;;;;;;;4317712;33;20227;-83
2021/09/07 14:05:12;;;;;;;14.98;10.23;;;;;;;;;;4331816;33;20162;-83
2021/09/07 14:07:38;;;;;;;12.02;9.45;;;;;;;;;;4317080;33;20183;-83
2021/09/07 14:10:13;;;;;;;14.45;9.85;;;;;;;;;;4330845;33;20138;-84
2021/09/07 14:12:38;;;;;;;9.90;8.27;;;;;;;;;;4331288;33;20201;-84
2021/09/07 14:15:04;;;;;;;13.80;9.00;;;;;;;;;;4317484;33;20613;-82
2021/09/07 14:17:29;;;;;;;9.75;8.50;;;;;;;;;;4330581;33;20167;-83
2021/09/07 14:19:55;;;;;;;17.85;12.10;;;;;;;;;;4330432;33;20187;-84
2021/09/07 14:22:29;;;;;;;18.25;11.95;;;;;;;;;;4330440;33;20141;-84
2021/09/07 14:24:57;;;;;;;14.20;10.13;;;;;;;;;;4331080;33;20196;-83
2021/09/07 14:27:22;;;;;;;14.45;11.20;;;;;;;;;;4330734;33;20144;-84
2021/09/07 14:29:48;;;;;;;14.18;12.25;;;;;;;;;;4330715;33;20473;-83
2021/09/07 14:32:13;;;;;;;16.60;12.32;;;;;;;;;;4330255;33;20139;-81
2021/09/07 14:34:39;;;;;;;17.00;13.00;;;;;;;;;;4330841;33;20627;-83
2021/09/07 14:37:04;;;;;;;15.88;12.80;;;;;;;;;;4318063;33;20189;-83
2021/09/07 14:39:30;;;;;;;14.13;11.32;;;;;;;;;;4330700;33;20194;-85
2021/09/07 14:41:55;;;;;;;14.50;11.98;;;;;;;;;;4330673;33;20144;-83
2021/09/07 14:44:20;;;;;;;14.10;11.87;;;;;;;;;;4330835;33;20247;-84
2021/09/07 14:46:46;;;;;;;14.68;11.57;;;;;;;;;;4331220;33;20236;-83